Aviation Digital Data Service (ADDS)

Output produced by METARs form (0325 UTC 27 January 2021)
found at http://www.aviationweather.gov/metar/data/
 
KGXY 270316Z 11005KT 3SM -SN BR SCT029 OVC036 M09/M11 A2994 RMK AO2 P0000 FZRANO